sensor_id;sensor_type;location;lat;lon;timestamp;P1;durP1;ratioP1;P2;durP2;ratioP2
4078;SDS011;2054;47.858;11.156;2022-08-21T02:30:19;1.50;;;1.40;;
4078;SDS011;2054;47.858;11.156;2022-08-21T02:32:47;1.50;;;1.40;;
4078;SDS011;2054;47.858;11.156;2022-08-21T02:35:14;2.55;;;1.27;;
4078;SDS011;2054;47.858;11.156;2022-08-21T02:37:44;2.22;;;1.52;;
4078;SDS011;2054;47.858;11.156;2022-08-21T02:40:13;2.97;;;1.30;;
4078;SDS011;2054;47.858;11.156;2022-08-21T02:42:40;2.88;;;1.23;;
4078;SDS011;2054;47.858;11.156;2022-08-21T02:45:08;3.05;;;1.40;;
4078;SDS011;2054;47.858;11.156;2022-08-21T02:47:37;4.18;;;1.58;;
4078;SDS011;2054;47.858;11.156;2022-08-21T02:50:05;2.10;;;1.30;;
4078;SDS011;2054;47.858;11.156;2022-08-21T02:52:33;2.67;;;1.55;;
4078;SDS011;2054;47.858;11.156;2022-08-21T02:55:00;3.53;;;1.40;;
4078;SDS011;2054;47.858;11.156;2022-08-21T02:57:27;1.50;;;1.40;;
4078;SDS011;2054;47.858;11.156;2022-08-21T02:59:57;1.33;;;1.23;;
4078;SDS011;2054;47.858;11.156;2022-08-21T03:02:24;2.67;;;1.50;;
4078;SDS011;2054;47.858;11.156;2022-08-21T03:04:53;1.38;;;1.27;;
4078;SDS011;2054;47.858;11.156;2022-08-21T03:07:20;2.00;;;1.33;;
4078;SDS011;2054;47.858;11.156;2022-08-21T03:09:47;2.53;;;1.50;;
4078;SDS011;2054;47.858;11.156;2022-08-21T03:12:15;2.40;;;1.30;;
4078;SDS011;2054;47.858;11.156;2022-08-21T03:14:42;1.63;;;1.40;;
4078;SDS011;2054;47.858;11.156;2022-08-21T03:17:09;2.63;;;1.30;;
4078;SDS011;2054;47.858;11.156;2022-08-21T03:19:37;4.18;;;1.33;;
4078;SDS011;2054;47.858;11.156;2022-08-21T03:22:05;1.23;;;1.13;;
4078;SDS011;2054;47.858;11.156;2022-08-21T03:24:33;1.67;;;1.55;;
4078;SDS011;2054;47.858;11.156;2022-08-21T03:27:00;1.85;;;1.33;;
4078;SDS011;2054;47.858;11.156;2022-08-21T03:29:27;2.55;;;1.50;;
4078;SDS011;2054;47.858;11.156;2022-08-21T03:31:54;1.40;;;1.30;;
4078;SDS011;2054;47.858;11.156;2022-08-21T03:34:22;1.67;;;1.40;;
4078;SDS011;2054;47.858;11.156;2022-08-21T03:36:49;1.65;;;1.35;;
4078;SDS011;2054;47.858;11.156;2022-08-21T03:39:18;3.78;;;1.20;;
4078;SDS011;2054;47.858;11.156;2022-08-21T03:41:45;1.42;;;1.33;;
4078;SDS011;2054;47.858;11.156;2022-08-21T03:44:13;2.50;;;1.08;;
4078;SDS011;2054;47.858;11.156;2022-08-21T03:46:40;1.17;;;1.08;;
4078;SDS011;2054;47.858;11.156;2022-08-21T03:49:07;1.50;;;1.40;;
4078;SDS011;2054;47.858;11.156;2022-08-21T03:51:35;1.30;;;1.20;;
4078;SDS011;2054;47.858;11.156;2022-08-21T03:54:02;1.50;;;1.17;;
4078;SDS011;2054;47.858;11.156;2022-08-21T03:56:31;2.40;;;1.10;;
4078;SDS011;2054;47.858;11.156;2022-08-21T03:58:58;3.15;;;1.55;;
4078;SDS011;2054;47.858;11.156;2022-08-21T04:01:27;3.55;;;1.35;;
4078;SDS011;2054;47.858;11.156;2022-08-21T04:03:54;1.40;;;1.30;;
4078;SDS011;2054;47.858;11.156;2022-08-21T04:06:21;1.17;;;1.10;;
4078;SDS011;2054;47.858;11.156;2022-08-21T04:08:49;1.42;;;1.33;;
4078;SDS011;2054;47.858;11.156;2022-08-21T04:11:17;3.65;;;1.30;;
4078;SDS011;2054;47.858;11.156;2022-08-21T04:13:45;1.48;;;1.38;;
4078;SDS011;2054;47.858;11.156;2022-08-21T04:16:13;1.40;;;1.30;;
4078;SDS011;2054;47.858;11.156;2022-08-21T04:18:40;1.20;;;1.10;;
4078;SDS011;2054;47.858;11.156;2022-08-21T04:21:08;2.08;;;1.35;;
4078;SDS011;2054;47.858;11.156;2022-08-21T04:23:36;4.53;;;1.20;;
4078;SDS011;2054;47.858;11.156;2022-08-21T04:26:03;3.88;;;1.45;;
4078;SDS011;2054;47.858;11.156;2022-08-21T04:28:31;1.20;;;1.10;;
4078;SDS011;2054;47.858;11.156;2022-08-21T04:31:00;1.55;;;1.45;;
4078;SDS011;2054;47.858;11.156;2022-08-21T04:33:27;1.40;;;1.30;;
4078;SDS011;2054;47.858;11.156;2022-08-21T04:35:54;2.42;;;1.27;;
4078;SDS011;2054;47.858;11.156;2022-08-21T04:38:21;1.60;;;0.90;;
4078;SDS011;2054;47.858;11.156;2022-08-21T04:40:49;2.13;;;1.00;;
4078;SDS011;2054;47.858;11.156;2022-08-21T04:43:17;1.52;;;1.42;;
4078;SDS011;2054;47.858;11.156;2022-08-21T04:45:45;1.33;;;1.23;;
4078;SDS011;2054;47.858;11.156;2022-08-21T04:48:15;2.30;;;1.35;;
4078;SDS011;2054;47.858;11.156;2022-08-21T04:50:43;1.92;;;1.40;;
4078;SDS011;2054;47.858;11.156;2022-08-21T04:53:13;2.47;;;2.28;;
4078;SDS011;2054;47.858;11.156;2022-08-21T04:55:41;1.30;;;1.20;;
4078;SDS011;2054;47.858;11.156;2022-08-21T04:58:09;1.77;;;1.40;;
4078;SDS011;2054;47.858;11.156;2022-08-21T05:00:39;3.65;;;1.60;;
4078;SDS011;2054;47.858;11.156;2022-08-21T05:03:06;2.13;;;1.45;;
4078;SDS011;2054;47.858;11.156;2022-08-21T05:05:36;1.83;;;1.42;;
4078;SDS011;2054;47.858;11.156;2022-08-21T05:08:03;1.50;;;1.38;;
4078;SDS011;2054;47.858;11.156;2022-08-21T05:10:31;1.63;;;1.52;;
4078;SDS011;2054;47.858;11.156;2022-08-21T05:12:58;1.70;;;1.27;;
4078;SDS011;2054;47.858;11.156;2022-08-21T05:15:26;2.47;;;1.58;;
4078;SDS011;2054;47.858;11.156;2022-08-21T05:17:54;2.42;;;1.90;;
4078;SDS011;2054;47.858;11.156;2022-08-21T05:20:22;1.88;;;1.75;;
4078;SDS011;2054;47.858;11.156;2022-08-21T05:22:51;3.83;;;1.88;;
4078;SDS011;2054;47.858;11.156;2022-08-21T05:25:18;2.75;;;1.60;;
4078;SDS011;2054;47.858;11.156;2022-08-21T05:27:45;4.18;;;1.50;;
4078;SDS011;2054;47.858;11.156;2022-08-21T05:30:12;4.07;;;1.40;;
4078;SDS011;2054;47.858;11.156;2022-08-21T05:32:40;1.55;;;1.33;;
4078;SDS011;2054;47.858;11.156;2022-08-21T05:35:07;2.15;;;1.70;;
4078;SDS011;2054;47.858;11.156;2022-08-21T05:37:36;2.10;;;1.50;;
4078;SDS011;2054;47.858;11.156;2022-08-21T05:40:05;1.85;;;1.75;;
4078;SDS011;2054;47.858;11.156;2022-08-21T05:42:32;2.45;;;1.63;;
4078;SDS011;2054;47.858;11.156;2022-08-21T05:45:00;1.95;;;1.75;;
4078;SDS011;2054;47.858;11.156;2022-08-21T05:47:27;2.55;;;1.70;;
4078;SDS011;2054;47.858;11.156;2022-08-21T05:49:54;1.70;;;1.60;;
4078;SDS011;2054;47.858;11.156;2022-08-21T05:52:21;2.70;;;1.67;;
4078;SDS011;2054;47.858;11.156;2022-08-21T05:54:49;3.70;;;1.58;;
4078;SDS011;2054;47.858;11.156;2022-08-21T05:57:20;1.95;;;1.77;;
4078;SDS011;2054;47.858;11.156;2022-08-21T05:59:47;1.63;;;1.52;;
4078;SDS011;2054;47.858;11.156;2022-08-21T06:02:16;1.60;;;1.50;;
4078;SDS011;2054;47.858;11.156;2022-08-21T06:04:43;4.88;;;1.80;;
4078;SDS011;2054;47.858;11.156;2022-08-21T06:07:11;2.10;;;1.80;;
4078;SDS011;2054;47.858;11.156;2022-08-21T06:09:38;2.13;;;1.98;;
4078;SDS011;2054;47.858;11.156;2022-08-21T06:12:05;1.95;;;1.85;;
4078;SDS011;2054;47.858;11.156;2022-08-21T06:14:35;4.07;;;2.42;;
4078;SDS011;2054;47.858;11.156;2022-08-21T06:17:03;4.90;;;1.73;;
4078;SDS011;2054;47.858;11.156;2022-08-21T06:19:30;2.10;;;1.90;;
4078;SDS011;2054;47.858;11.156;2022-08-21T06:21:57;2.30;;;2.10;;
4078;SDS011;2054;47.858;11.156;2022-08-21T06:24:25;2.13;;;2.03;;
4078;SDS011;2054;47.858;11.156;2022-08-21T06:26:52;1.90;;;1.80;;
4078;SDS011;2054;47.858;11.156;2022-08-21T06:29:20;2.08;;;1.73;;
4078;SDS011;2054;47.858;11.156;2022-08-21T06:31:49;3.72;;;1.60;;
4078;SDS011;2054;47.858;11.156;2022-08-21T06:34:16;2.08;;;1.70;;
4078;SDS011;2054;47.858;11.156;2022-08-21T06:36:44;2.50;;;1.60;;
4078;SDS011;2054;47.858;11.156;2022-08-21T06:39:11;2.13;;;1.70;;
4078;SDS011;2054;47.858;11.156;2022-08-21T06:41:39;1.52;;;1.42;;
4078;SDS011;2054;47.858;11.156;2022-08-21T06:44:06;2.67;;;1.60;;
4078;SDS011;2054;47.858;11.156;2022-08-21T06:46:33;1.80;;;1.60;;
4078;SDS011;2054;47.858;11.156;2022-08-21T06:49:02;1.40;;;1.30;;
4078;SDS011;2054;47.858;11.156;2022-08-21T06:51:29;1.67;;;1.58;;
4078;SDS011;2054;47.858;11.156;2022-08-21T06:53:56;1.83;;;1.73;;
4078;SDS011;2054;47.858;11.156;2022-08-21T06:56:24;1.38;;;1.27;;
4078;SDS011;2054;47.858;11.156;2022-08-21T06:58:51;1.70;;;1.60;;
4078;SDS011;2054;47.858;11.156;2022-08-21T07:01:18;2.13;;;1.88;;
4078;SDS011;2054;47.858;11.156;2022-08-21T07:03:46;1.70;;;1.60;;
4078;SDS011;2054;47.858;11.156;2022-08-21T07:06:15;4.22;;;1.70;;
4078;SDS011;2054;47.858;11.156;2022-08-21T07:08:42;2.35;;;1.90;;
4078;SDS011;2054;47.858;11.156;2022-08-21T07:11:11;2.83;;;1.92;;
4078;SDS011;2054;47.858;11.156;2022-08-21T07:13:39;2.80;;;1.70;;
4078;SDS011;2054;47.858;11.156;2022-08-21T07:16:07;1.52;;;1.40;;
4078;SDS011;2054;47.858;11.156;2022-08-21T07:18:34;2.05;;;1.70;;
4078;SDS011;2054;47.858;11.156;2022-08-21T07:21:01;3.30;;;1.65;;
4078;SDS011;2054;47.858;11.156;2022-08-21T07:23:32;4.35;;;1.58;;
4078;SDS011;2054;47.858;11.156;2022-08-21T07:25:59;1.75;;;1.65;;
4078;SDS011;2054;47.858;11.156;2022-08-21T07:28:26;1.95;;;1.58;;
4078;SDS011;2054;47.858;11.156;2022-08-21T07:30:55;1.70;;;1.60;;
4078;SDS011;2054;47.858;11.156;2022-08-21T07:33:23;2.25;;;1.50;;
4078;SDS011;2054;47.858;11.156;2022-08-21T07:35:50;2.47;;;1.73;;
4078;SDS011;2054;47.858;11.156;2022-08-21T07:38:17;2.55;;;1.58;;
4078;SDS011;2054;47.858;11.156;2022-08-21T07:40:46;1.90;;;1.60;;
4078;SDS011;2054;47.858;11.156;2022-08-21T07:43:13;1.90;;;1.65;;
4078;SDS011;2054;47.858;11.156;2022-08-21T07:45:42;3.47;;;1.70;;
4078;SDS011;2054;47.858;11.156;2022-08-21T07:48:10;1.60;;;1.48;;
4078;SDS011;2054;47.858;11.156;2022-08-21T07:50:37;2.22;;;1.58;;
4078;SDS011;2054;47.858;11.156;2022-08-21T07:53:04;2.00;;;1.65;;
4078;SDS011;2054;47.858;11.156;2022-08-21T07:55:32;2.17;;;1.50;;
4078;SDS011;2054;47.858;11.156;2022-08-21T07:58:00;2.65;;;1.77;;
4078;SDS011;2054;47.858;11.156;2022-08-21T08:00:28;1.77;;;1.67;;
4078;SDS011;2054;47.858;11.156;2022-08-21T08:02:55;2.55;;;2.00;;
4078;SDS011;2054;47.858;11.156;2022-08-21T08:05:24;3.22;;;1.80;;
4078;SDS011;2054;47.858;11.156;2022-08-21T08:07:51;2.13;;;1.60;;
4078;SDS011;2054;47.858;11.156;2022-08-21T08:10:19;2.72;;;1.70;;
4078;SDS011;2054;47.858;11.156;2022-08-21T08:12:47;2.75;;;2.03;;
4078;SDS011;2054;47.858;11.156;2022-08-21T08:15:18;2.03;;;1.70;;
4078;SDS011;2054;47.858;11.156;2022-08-21T08:17:46;2.33;;;1.65;;
4078;SDS011;2054;47.858;11.156;2022-08-21T08:20:14;2.72;;;1.80;;
4078;SDS011;2054;47.858;11.156;2022-08-21T08:22:43;3.25;;;1.70;;
4078;SDS011;2054;47.858;11.156;2022-08-21T08:25:11;3.85;;;1.70;;
4078;SDS011;2054;47.858;11.156;2022-08-21T08:27:39;4.95;;;1.67;;
4078;SDS011;2054;47.858;11.156;2022-08-21T08:30:07;2.50;;;1.90;;
4078;SDS011;2054;47.858;11.156;2022-08-21T08:32:36;3.47;;;1.63;;
4078;SDS011;2054;47.858;11.156;2022-08-21T08:35:04;4.65;;;1.88;;
4078;SDS011;2054;47.858;11.156;2022-08-21T08:37:31;3.05;;;1.70;;
4078;SDS011;2054;47.858;11.156;2022-08-21T08:39:59;2.03;;;1.80;;
4078;SDS011;2054;47.858;11.156;2022-08-21T08:42:28;2.15;;;1.83;;
4078;SDS011;2054;47.858;11.156;2022-08-21T08:47:24;2.45;;;1.60;;
4078;SDS011;2054;47.858;11.156;2022-08-21T08:49:55;4.00;;;1.83;;
4078;SDS011;2054;47.858;11.156;2022-08-21T08:52:26;2.55;;;1.48;;
4078;SDS011;2054;47.858;11.156;2022-08-21T08:54:57;2.25;;;1.90;;
4078;SDS011;2054;47.858;11.156;2022-08-21T08:57:26;3.08;;;1.55;;
4078;SDS011;2054;47.858;11.156;2022-08-21T08:59:53;1.98;;;1.63;;
4078;SDS011;2054;47.858;11.156;2022-08-21T09:02:23;3.90;;;1.80;;
4078;SDS011;2054;47.858;11.156;2022-08-21T09:04:54;3.00;;;1.80;;
4078;SDS011;2054;47.858;11.156;2022-08-21T09:07:24;3.72;;;1.90;;
4078;SDS011;2054;47.858;11.156;2022-08-21T09:10:01;3.30;;;2.17;;
4078;SDS011;2054;47.858;11.156;2022-08-21T09:12:33;4.90;;;1.52;;
4078;SDS011;2054;47.858;11.156;2022-08-21T09:15:02;1.83;;;1.33;;
4078;SDS011;2054;47.858;11.156;2022-08-21T09:17:39;1.77;;;1.52;;
4078;SDS011;2054;47.858;11.156;2022-08-21T09:20:14;2.83;;;1.73;;
4078;SDS011;2054;47.858;11.156;2022-08-21T09:22:51;3.55;;;1.98;;
4078;SDS011;2054;47.858;11.156;2022-08-21T09:25:24;2.00;;;1.60;;
4078;SDS011;2054;47.858;11.156;2022-08-21T09:27:53;2.92;;;1.67;;
4078;SDS011;2054;47.858;11.156;2022-08-21T09:30:24;3.00;;;1.83;;
4078;SDS011;2054;47.858;11.156;2022-08-21T09:32:52;2.75;;;1.58;;
4078;SDS011;2054;47.858;11.156;2022-08-21T09:35:21;2.25;;;1.63;;
4078;SDS011;2054;47.858;11.156;2022-08-21T09:37:50;3.20;;;1.67;;
4078;SDS011;2054;47.858;11.156;2022-08-21T09:40:20;4.00;;;1.67;;
4078;SDS011;2054;47.858;11.156;2022-08-21T09:42:53;2.05;;;1.50;;
4078;SDS011;2054;47.858;11.156;2022-08-21T09:45:21;5.90;;;1.90;;
4078;SDS011;2054;47.858;11.156;2022-08-21T09:47:48;5.10;;;1.80;;
4078;SDS011;2054;47.858;11.156;2022-08-21T09:50:16;2.95;;;1.67;;
4078;SDS011;2054;47.858;11.156;2022-08-21T09:52:46;5.15;;;1.75;;
4078;SDS011;2054;47.858;11.156;2022-08-21T09:55:16;3.03;;;1.65;;
4078;SDS011;2054;47.858;11.156;2022-08-21T09:58:03;4.18;;;1.83;;
4078;SDS011;2054;47.858;11.156;2022-08-21T10:00:30;3.10;;;1.75;;
4078;SDS011;2054;47.858;11.156;2022-08-21T10:03:08;3.92;;;1.83;;
4078;SDS011;2054;47.858;11.156;2022-08-21T10:05:36;4.13;;;2.08;;
4078;SDS011;2054;47.858;11.156;2022-08-21T10:08:06;3.15;;;1.92;;
4078;SDS011;2054;47.858;11.156;2022-08-21T10:10:42;2.63;;;1.85;;
4078;SDS011;2054;47.858;11.156;2022-08-21T10:13:11;3.40;;;1.90;;
4078;SDS011;2054;47.858;11.156;2022-08-21T10:15:47;5.63;;;2.30;;
4078;SDS011;2054;47.858;11.156;2022-08-21T10:18:18;3.33;;;1.80;;
4078;SDS011;2054;47.858;11.156;2022-08-21T10:20:49;3.05;;;2.10;;
4078;SDS011;2054;47.858;11.156;2022-08-21T10:23:26;3.33;;;1.88;;
4078;SDS011;2054;47.858;11.156;2022-08-21T10:25:56;4.18;;;2.20;;
4078;SDS011;2054;47.858;11.156;2022-08-21T10:28:26;5.05;;;2.17;;
4078;SDS011;2054;47.858;11.156;2022-08-21T10:30:58;2.53;;;1.95;;
4078;SDS011;2054;47.858;11.156;2022-08-21T10:33:29;4.13;;;2.10;;
4078;SDS011;2054;47.858;11.156;2022-08-21T10:36:02;4.82;;;2.53;;
4078;SDS011;2054;47.858;11.156;2022-08-21T10:38:41;4.57;;;2.40;;
4078;SDS011;2054;47.858;11.156;2022-08-21T10:41:14;3.55;;;2.28;;
4078;SDS011;2054;47.858;11.156;2022-08-21T10:43:47;2.30;;;2.00;;
4078;SDS011;2054;47.858;11.156;2022-08-21T10:49:05;4.50;;;2.42;;
4078;SDS011;2054;47.858;11.156;2022-08-21T10:51:35;2.97;;;2.20;;
4078;SDS011;2054;47.858;11.156;2022-08-21T10:54:09;3.47;;;2.20;;
4078;SDS011;2054;47.858;11.156;2022-08-21T10:56:40;2.42;;;2.22;;
4078;SDS011;2054;47.858;11.156;2022-08-21T10:59:15;2.58;;;2.22;;
4078;SDS011;2054;47.858;11.156;2022-08-21T11:01:46;4.40;;;2.45;;
4078;SDS011;2054;47.858;11.156;2022-08-21T11:04:16;2.53;;;2.30;;
4078;SDS011;2054;47.858;11.156;2022-08-21T11:06:47;3.05;;;2.10;;
4078;SDS011;2054;47.858;11.156;2022-08-21T11:09:18;3.17;;;2.00;;
4078;SDS011;2054;47.858;11.156;2022-08-21T11:11:46;4.10;;;2.20;;
4078;SDS011;2054;47.858;11.156;2022-08-21T11:14:17;3.33;;;2.00;;
4078;SDS011;2054;47.858;11.156;2022-08-21T11:16:48;2.78;;;2.05;;
4078;SDS011;2054;47.858;11.156;2022-08-21T11:19:17;3.00;;;2.40;;
4078;SDS011;2054;47.858;11.156;2022-08-21T11:21:46;3.67;;;2.70;;
4078;SDS011;2054;47.858;11.156;2022-08-21T11:24:24;4.30;;;2.65;;
4078;SDS011;2054;47.858;11.156;2022-08-21T11:26:58;2.60;;;2.40;;
4078;SDS011;2054;47.858;11.156;2022-08-21T11:29:29;3.92;;;2.80;;
4078;SDS011;2054;47.858;11.156;2022-08-21T11:32:01;2.80;;;2.50;;
4078;SDS011;2054;47.858;11.156;2022-08-21T11:34:37;4.82;;;2.35;;
4078;SDS011;2054;47.858;11.156;2022-08-21T11:37:08;3.33;;;2.60;;
4078;SDS011;2054;47.858;11.156;2022-08-21T11:39:40;3.75;;;3.38;;
4078;SDS011;2054;47.858;11.156;2022-08-21T11:42:12;4.35;;;3.20;;
4078;SDS011;2054;47.858;11.156;2022-08-21T11:44:46;6.50;;;3.28;;
4078;SDS011;2054;47.858;11.156;2022-08-21T11:47:15;5.68;;;3.05;;
4078;SDS011;2054;47.858;11.156;2022-08-21T11:49:51;3.45;;;2.90;;
4078;SDS011;2054;47.858;11.156;2022-08-21T11:52:21;2.85;;;2.40;;
4078;SDS011;2054;47.858;11.156;2022-08-21T11:54:54;4.25;;;3.00;;
4078;SDS011;2054;47.858;11.156;2022-08-21T11:57:24;3.28;;;2.85;;
4078;SDS011;2054;47.858;11.156;2022-08-21T11:59:53;4.15;;;2.45;;
4078;SDS011;2054;47.858;11.156;2022-08-21T12:02:24;3.05;;;2.70;;
4078;SDS011;2054;47.858;11.156;2022-08-21T12:04:55;2.63;;;2.30;;
4078;SDS011;2054;47.858;11.156;2022-08-21T12:07:31;5.90;;;2.83;;
4078;SDS011;2054;47.858;11.156;2022-08-21T12:10:00;3.67;;;2.70;;
4078;SDS011;2054;47.858;11.156;2022-08-21T12:12:28;2.60;;;2.40;;
4078;SDS011;2054;47.858;11.156;2022-08-21T12:15:13;7.10;;;2.80;;
4078;SDS011;2054;47.858;11.156;2022-08-21T12:17:41;3.78;;;3.00;;
4078;SDS011;2054;47.858;11.156;2022-08-21T12:20:22;2.72;;;2.53;;
4078;SDS011;2054;47.858;11.156;2022-08-21T12:22:52;4.50;;;2.63;;
4078;SDS011;2054;47.858;11.156;2022-08-21T12:25:21;3.10;;;2.80;;
4078;SDS011;2054;47.858;11.156;2022-08-21T12:27:49;2.72;;;2.53;;
4078;SDS011;2054;47.858;11.156;2022-08-21T12:30:21;2.65;;;2.40;;
4078;SDS011;2054;47.858;11.156;2022-08-21T12:32:54;5.70;;;2.55;;
4078;SDS011;2054;47.858;11.156;2022-08-21T12:35:23;5.45;;;2.80;;
4078;SDS011;2054;47.858;11.156;2022-08-21T12:37:52;3.22;;;2.70;;
4078;SDS011;2054;47.858;11.156;2022-08-21T12:40:25;3.08;;;2.72;;
4078;SDS011;2054;47.858;11.156;2022-08-21T12:42:53;2.97;;;2.67;;
4078;SDS011;2054;47.858;11.156;2022-08-21T12:45:23;3.85;;;2.63;;
4078;SDS011;2054;47.858;11.156;2022-08-21T12:47:54;4.63;;;2.70;;
4078;SDS011;2054;47.858;11.156;2022-08-21T12:50:24;3.35;;;2.70;;
4078;SDS011;2054;47.858;11.156;2022-08-21T12:52:54;3.20;;;2.50;;
4078;SDS011;2054;47.858;11.156;2022-08-21T12:55:28;4.47;;;3.05;;
4078;SDS011;2054;47.858;11.156;2022-08-21T12:57:56;3.67;;;2.88;;
4078;SDS011;2054;47.858;11.156;2022-08-21T13:00:24;3.63;;;2.72;;
4078;SDS011;2054;47.858;11.156;2022-08-21T13:02:51;3.00;;;2.40;;
4078;SDS011;2054;47.858;11.156;2022-08-21T13:05:23;2.90;;;2.70;;
4078;SDS011;2054;47.858;11.156;2022-08-21T13:07:52;3.00;;;2.50;;
4078;SDS011;2054;47.858;11.156;2022-08-21T13:10:20;3.13;;;2.70;;
4078;SDS011;2054;47.858;11.156;2022-08-21T13:12:50;3.85;;;2.65;;
4078;SDS011;2054;47.858;11.156;2022-08-21T13:15:22;3.38;;;2.60;;
4078;SDS011;2054;47.858;11.156;2022-08-21T13:17:50;4.28;;;2.65;;
4078;SDS011;2054;47.858;11.156;2022-08-21T13:20:19;3.90;;;3.08;;
4078;SDS011;2054;47.858;11.156;2022-08-21T13:22:46;2.78;;;2.58;;
4078;SDS011;2054;47.858;11.156;2022-08-21T13:25:15;3.38;;;2.53;;
4078;SDS011;2054;47.858;11.156;2022-08-21T13:27:43;3.53;;;2.50;;
4078;SDS011;2054;47.858;11.156;2022-08-21T13:30:18;4.88;;;2.75;;
4078;SDS011;2054;47.858;11.156;2022-08-21T13:32:48;3.33;;;2.63;;
4078;SDS011;2054;47.858;11.156;2022-08-21T13:35:16;3.33;;;2.67;;
4078;SDS011;2054;47.858;11.156;2022-08-21T13:37:44;2.97;;;2.72;;
4078;SDS011;2054;47.858;11.156;2022-08-21T13:40:13;3.03;;;2.60;;
4078;SDS011;2054;47.858;11.156;2022-08-21T13:42:41;3.95;;;2.38;;
4078;SDS011;2054;47.858;11.156;2022-08-21T13:45:15;2.63;;;2.40;;
4078;SDS011;2054;47.858;11.156;2022-08-21T13:47:43;3.10;;;2.90;;
4078;SDS011;2054;47.858;11.156;2022-08-21T13:50:13;3.72;;;2.53;;
4078;SDS011;2054;47.858;11.156;2022-08-21T13:52:49;2.55;;;2.35;;
4078;SDS011;2054;47.858;11.156;2022-08-21T13:55:16;2.95;;;2.70;;
4078;SDS011;2054;47.858;11.156;2022-08-21T13:57:44;2.67;;;2.40;;
4078;SDS011;2054;47.858;11.156;2022-08-21T14:00:12;3.15;;;2.60;;
4078;SDS011;2054;47.858;11.156;2022-08-21T14:02:42;2.70;;;2.50;;
4078;SDS011;2054;47.858;11.156;2022-08-21T14:05:14;4.55;;;2.58;;
4078;SDS011;2054;47.858;11.156;2022-08-21T14:07:42;4.38;;;2.45;;
4078;SDS011;2054;47.858;11.156;2022-08-21T14:10:12;2.72;;;2.40;;
4078;SDS011;2054;47.858;11.156;2022-08-21T14:12:41;3.95;;;2.60;;
4078;SDS011;2054;47.858;11.156;2022-08-21T14:15:09;2.80;;;2.60;;
4078;SDS011;2054;47.858;11.156;2022-08-21T14:17:40;3.10;;;2.80;;
4078;SDS011;2054;47.858;11.156;2022-08-21T14:20:09;5.82;;;2.90;;
4078;SDS011;2054;47.858;11.156;2022-08-21T14:22:37;2.80;;;2.60;;
4078;SDS011;2054;47.858;11.156;2022-08-21T14:25:06;3.33;;;2.53;;
4078;SDS011;2054;47.858;11.156;2022-08-21T14:27:35;3.60;;;2.47;;
4078;SDS011;2054;47.858;11.156;2022-08-21T14:30:04;4.43;;;2.70;;
4078;SDS011;2054;47.858;11.156;2022-08-21T14:32:36;2.83;;;2.60;;
4078;SDS011;2054;47.858;11.156;2022-08-21T14:35:04;2.83;;;2.63;;
4078;SDS011;2054;47.858;11.156;2022-08-21T14:37:33;3.15;;;2.55;;
4078;SDS011;2054;47.858;11.156;2022-08-21T14:40:00;3.60;;;2.70;;
4078;SDS011;2054;47.858;11.156;2022-08-21T14:42:28;3.90;;;2.78;;
4078;SDS011;2054;47.858;11.156;2022-08-21T14:44:56;2.75;;;2.55;;
4078;SDS011;2054;47.858;11.156;2022-08-21T14:47:24;2.78;;;2.58;;
4078;SDS011;2054;47.858;11.156;2022-08-21T14:49:51;3.83;;;2.90;;
4078;SDS011;2054;47.858;11.156;2022-08-21T14:52:19;2.97;;;2.40;;
4078;SDS011;2054;47.858;11.156;2022-08-21T14:54:49;3.20;;;3.00;;
4078;SDS011;2054;47.858;11.156;2022-08-21T14:57:16;5.25;;;2.55;;
4078;SDS011;2054;47.858;11.156;2022-08-21T14:59:43;2.78;;;2.47;;
4078;SDS011;2054;47.858;11.156;2022-08-21T15:02:11;3.17;;;2.78;;
4078;SDS011;2054;47.858;11.156;2022-08-21T15:04:38;3.80;;;2.75;;
4078;SDS011;2054;47.858;11.156;2022-08-21T15:07:06;4.82;;;2.42;;
4078;SDS011;2054;47.858;11.156;2022-08-21T15:09:34;2.88;;;2.67;;
4078;SDS011;2054;47.858;11.156;2022-08-21T15:12:03;2.70;;;2.50;;
4078;SDS011;2054;47.858;11.156;2022-08-21T15:14:32;2.67;;;2.47;;
4078;SDS011;2054;47.858;11.156;2022-08-21T15:16:59;3.30;;;3.00;;
4078;SDS011;2054;47.858;11.156;2022-08-21T15:19:28;4.18;;;2.78;;
4078;SDS011;2054;47.858;11.156;2022-08-21T15:21:55;2.60;;;2.40;;
4078;SDS011;2054;47.858;11.156;2022-08-21T15:24:22;3.05;;;2.75;;
4078;SDS011;2054;47.858;11.156;2022-08-21T15:26:50;3.28;;;2.28;;
4078;SDS011;2054;47.858;11.156;2022-08-21T15:29:19;3.78;;;2.67;;
4078;SDS011;2054;47.858;11.156;2022-08-21T15:31:51;2.50;;;2.30;;
4078;SDS011;2054;47.858;11.156;2022-08-21T15:34:19;3.45;;;2.30;;
4078;SDS011;2054;47.858;11.156;2022-08-21T15:36:46;3.55;;;2.40;;
4078;SDS011;2054;47.858;11.156;2022-08-21T15:39:14;2.50;;;2.30;;
4078;SDS011;2054;47.858;11.156;2022-08-21T15:41:41;2.60;;;2.40;;
4078;SDS011;2054;47.858;11.156;2022-08-21T15:44:09;4.38;;;2.15;;
4078;SDS011;2054;47.858;11.156;2022-08-21T15:46:39;2.95;;;2.53;;
4078;SDS011;2054;47.858;11.156;2022-08-21T15:49:06;2.95;;;2.65;;
4078;SDS011;2054;47.858;11.156;2022-08-21T15:51:35;2.65;;;2.20;;
4078;SDS011;2054;47.858;11.156;2022-08-21T15:54:03;3.35;;;2.70;;
4078;SDS011;2054;47.858;11.156;2022-08-21T15:56:32;3.28;;;2.80;;
4078;SDS011;2054;47.858;11.156;2022-08-21T15:59:00;3.08;;;2.83;;
4078;SDS011;2054;47.858;11.156;2022-08-21T16:01:28;2.60;;;2.40;;
4078;SDS011;2054;47.858;11.156;2022-08-21T16:03:56;4.22;;;3.20;;
4078;SDS011;2054;47.858;11.156;2022-08-21T16:06:24;4.03;;;2.55;;
4078;SDS011;2054;47.858;11.156;2022-08-21T16:08:51;3.65;;;3.00;;
4078;SDS011;2054;47.858;11.156;2022-08-21T16:11:18;3.22;;;2.33;;
4078;SDS011;2054;47.858;11.156;2022-08-21T16:13:46;3.42;;;2.90;;
4078;SDS011;2054;47.858;11.156;2022-08-21T16:16:15;3.42;;;2.60;;
4078;SDS011;2054;47.858;11.156;2022-08-21T16:18:42;2.80;;;2.55;;
4078;SDS011;2054;47.858;11.156;2022-08-21T16:21:11;4.75;;;3.05;;
4078;SDS011;2054;47.858;11.156;2022-08-21T16:23:41;4.68;;;3.03;;
4078;SDS011;2054;47.858;11.156;2022-08-21T16:26:10;3.28;;;2.80;;
4078;SDS011;2054;47.858;11.156;2022-08-21T16:28:38;4.93;;;2.58;;
4078;SDS011;2054;47.858;11.156;2022-08-21T16:31:07;5.05;;;3.17;;
4078;SDS011;2054;47.858;11.156;2022-08-21T16:33:36;3.17;;;2.50;;
4078;SDS011;2054;47.858;11.156;2022-08-21T16:36:04;3.53;;;3.20;;
4078;SDS011;2054;47.858;11.156;2022-08-21T16:38:34;3.38;;;2.97;;
4078;SDS011;2054;47.858;11.156;2022-08-21T16:41:02;7.65;;;4.80;;
4078;SDS011;2054;47.858;11.156;2022-08-21T16:43:29;5.28;;;3.13;;
4078;SDS011;2054;47.858;11.156;2022-08-21T16:45:57;3.80;;;3.40;;
4078;SDS011;2054;47.858;11.156;2022-08-21T16:48:25;3.13;;;2.83;;
4078;SDS011;2054;47.858;11.156;2022-08-21T16:50:53;4.03;;;2.70;;
4078;SDS011;2054;47.858;11.156;2022-08-21T16:53:20;4.43;;;2.65;;
4078;SDS011;2054;47.858;11.156;2022-08-21T16:55:50;3.78;;;2.78;;
4078;SDS011;2054;47.858;11.156;2022-08-21T16:58:19;3.63;;;2.65;;
4078;SDS011;2054;47.858;11.156;2022-08-21T17:00:48;7.28;;;2.60;;
4078;SDS011;2054;47.858;11.156;2022-08-21T17:03:16;6.00;;;2.92;;
4078;SDS011;2054;47.858;11.156;2022-08-21T17:05:45;3.03;;;2.50;;
4078;SDS011;2054;47.858;11.156;2022-08-21T17:08:12;4.18;;;3.03;;
4078;SDS011;2054;47.858;11.156;2022-08-21T17:10:41;5.38;;;2.88;;
4078;SDS011;2054;47.858;11.156;2022-08-21T17:13:11;3.83;;;2.83;;
4078;SDS011;2054;47.858;11.156;2022-08-21T17:15:38;3.60;;;2.53;;
4078;SDS011;2054;47.858;11.156;2022-08-21T17:18:07;3.47;;;2.80;;
4078;SDS011;2054;47.858;11.156;2022-08-21T17:20:35;4.60;;;2.80;;
4078;SDS011;2054;47.858;11.156;2022-08-21T17:23:02;3.75;;;2.92;;
4078;SDS011;2054;47.858;11.156;2022-08-21T17:25:30;4.57;;;3.03;;
4078;SDS011;2054;47.858;11.156;2022-08-21T17:27:57;2.92;;;2.70;;
4078;SDS011;2054;47.858;11.156;2022-08-21T17:30:26;4.10;;;2.78;;
4078;SDS011;2054;47.858;11.156;2022-08-21T17:32:53;5.10;;;3.20;;
4078;SDS011;2054;47.858;11.156;2022-08-21T17:35:21;3.72;;;2.85;;
4078;SDS011;2054;47.858;11.156;2022-08-21T17:37:48;6.35;;;2.97;;
4078;SDS011;2054;47.858;11.156;2022-08-21T17:40:17;4.28;;;3.08;;
4078;SDS011;2054;47.858;11.156;2022-08-21T17:42:45;3.53;;;3.22;;
4078;SDS011;2054;47.858;11.156;2022-08-21T17:45:13;4.80;;;3.03;;